Time;durP1;ratioP1;P1;durP2;ratioP2;P2;SDS_P1;SDS_P2;PMS_P1;PMS_P2;Temp;Humidity;BMP_temperature;BMP_pressure;BME280_temperature;BME280_humidity;BME280_pressure;Samples;Min_cycle;Max_cycle;Signal;HPM_P1;HPM_P2
2021/04/08 00:00:08;;;;;;;4.82;2.00;;;6.40;99.90;;;;;;5036008;28;20206;-69
2021/04/08 00:02:34;;;;;;;3.58;3.28;;;6.40;99.90;;;;;;5036297;28;20192;-67
2021/04/08 00:05:00;;;;;;;3.42;2.80;;;6.50;99.90;;;;;;5035070;28;20204;-68
2021/04/08 00:07:26;;;;;;;3.60;2.50;;;6.40;99.90;;;;;;5041927;28;20196;-68
2021/04/08 00:09:53;;;;;;;3.90;2.10;;;6.40;99.90;;;;;;5032196;28;20206;-68
2021/04/08 00:12:20;;;;;;;2.30;2.10;;;6.40;99.90;;;;;;5047074;28;20547;-68
2021/04/08 00:14:46;;;;;;;4.30;2.30;;;6.30;99.90;;;;;;5031264;28;20214;-68
2021/04/08 00:17:12;;;;;;;3.47;2.42;;;6.40;99.90;;;;;;5031388;28;20277;-69
2021/04/08 00:19:38;;;;;;;3.28;2.10;;;6.40;99.90;;;;;;5041012;28;20236;-70
2021/04/08 00:22:04;;;;;;;3.50;2.38;;;6.40;99.90;;;;;;5032232;28;20192;-69
2021/04/08 00:24:30;;;;;;;2.72;2.10;;;6.40;99.90;;;;;;5043011;28;20211;-69
2021/04/08 00:26:57;;;;;;;4.90;2.65;;;6.40;99.90;;;;;;5037643;28;20194;-69
2021/04/08 00:29:24;;;;;;;3.10;2.80;;;6.40;99.90;;;;;;5037541;28;20254;-69
2021/04/08 00:31:50;;;;;;;2.47;1.77;;;6.40;99.90;;;;;;5040387;28;20223;-69
2021/04/08 00:34:16;;;;;;;3.13;2.53;;;6.40;99.90;;;;;;5040122;28;20200;-69
2021/04/08 00:36:42;;;;;;;3.22;2.15;;;6.40;99.90;;;;;;5038134;28;20215;-68
2021/04/08 00:39:09;;;;;;;5.82;2.83;;;6.30;99.90;;;;;;5045649;28;20862;-69
2021/04/08 00:41:35;;;;;;;2.90;1.75;;;6.40;99.90;;;;;;5031410;28;20651;-69
2021/04/08 00:44:02;;;;;;;2.55;1.80;;;6.30;99.90;;;;;;5031815;28;20199;-69
2021/04/08 00:46:29;;;;;;;3.28;2.30;;;6.40;99.90;;;;;;5036449;28;20195;-69
2021/04/08 00:48:55;;;;;;;4.82;2.08;;;6.30;99.90;;;;;;5033118;28;20211;-69
2021/04/08 00:51:23;;;;;;;2.08;1.73;;;6.40;99.90;;;;;;5037115;28;20220;-69
2021/04/08 00:53:51;;;;;;;2.78;2.47;;;6.30;99.90;;;;;;5030288;28;20587;-69
2021/04/08 00:56:17;;;;;;;5.40;2.33;;;6.30;99.90;;;;;;5033607;28;20195;-69
2021/04/08 00:58:45;;;;;;;5.70;2.47;;;6.30;99.90;;;;;;5047313;28;20214;-69
2021/04/08 01:01:11;;;;;;;2.85;2.63;;;6.30;99.90;;;;;;5034585;28;20192;-69
2021/04/08 01:03:38;;;;;;;4.85;2.90;;;6.30;99.90;;;;;;5036321;28;20196;-69
2021/04/08 01:06:06;;;;;;;5.35;3.20;;;6.30;99.90;;;;;;5040995;28;20225;-69
2021/04/08 01:08:32;;;;;;;2.88;2.65;;;6.30;99.90;;;;;;5030393;28;20203;-69
2021/04/08 01:10:58;;;;;;;3.63;3.00;;;6.30;99.90;;;;;;5029819;28;20675;-69
2021/04/08 01:13:25;;;;;;;3.47;3.17;;;6.30;99.90;;;;;;5040218;28;20214;-69
2021/04/08 01:15:51;;;;;;;3.65;3.03;;;6.30;99.90;;;;;;5033348;28;20202;-69
2021/04/08 01:18:29;;;;;;;4.60;2.90;;;6.30;99.90;;;;;;5038260;28;20239;-69
2021/04/08 01:21:12;;;;;;;5.50;3.28;;;6.30;99.90;;;;;;5035283;28;20214;-69
2021/04/08 01:24:05;;;;;;;5.05;3.67;;;6.30;99.90;;;;;;5032096;28;20691;-69
2021/04/08 01:26:59;;;;;;;5.55;3.97;;;6.20;99.90;;;;;;5030634;28;20607;-69
2021/04/08 01:29:37;;;;;;;3.72;2.80;;;6.20;99.90;;;;;;5039220;28;20206;-69
2021/04/08 01:32:07;;;;;;;3.10;2.80;;;6.20;99.90;;;;;;5038604;28;20219;-69
2021/04/08 01:34:35;;;;;;;4.00;3.03;;;6.20;99.90;;;;;;5030874;28;20218;-69
2021/04/08 01:37:06;;;;;;;4.30;3.90;;;6.20;99.90;;;;;;5033217;28;20195;-68
2021/04/08 01:39:34;;;;;;;9.27;3.80;;;6.30;99.90;;;;;;5030475;28;20196;-69
2021/04/08 01:42:02;;;;;;;3.28;2.60;;;6.30;99.90;;;;;;5042486;28;20205;-68
2021/04/08 01:44:29;;;;;;;5.38;3.28;;;6.20;99.90;;;;;;5035034;28;20206;-69
2021/04/08 01:46:59;;;;;;;4.50;3.10;;;6.20;99.90;;;;;;5036657;28;20191;-69
2021/04/08 01:49:30;;;;;;;4.05;3.75;;;6.20;99.90;;;;;;5049041;28;20198;-68
2021/04/08 01:51:57;;;;;;;3.45;3.15;;;6.20;99.90;;;;;;5031115;28;20623;-68
2021/04/08 01:54:25;;;;;;;7.70;3.60;;;6.20;99.90;;;;;;5030425;28;20203;-68
2021/04/08 01:56:55;;;;;;;4.32;2.70;;;6.20;99.90;;;;;;5033734;28;20203;-68
2021/04/08 01:59:21;;;;;;;4.90;3.30;;;6.20;99.90;;;;;;5044374;28;20203;-69
2021/04/08 02:01:48;;;;;;;7.22;2.95;;;6.20;99.90;;;;;;5030746;28;20195;-68
2021/04/08 02:04:15;;;;;;;3.55;2.90;;;6.20;99.90;;;;;;5036975;28;20290;-68
2021/04/08 02:06:44;;;;;;;7.10;3.25;;;6.20;99.90;;;;;;5050823;28;20194;-68
2021/04/08 02:09:10;;;;;;;3.80;2.97;;;6.20;99.90;;;;;;5048825;28;20208;-68
2021/04/08 02:11:38;;;;;;;4.72;3.08;;;6.20;99.90;;;;;;5039287;28;20211;-68
2021/04/08 02:14:05;;;;;;;5.78;3.65;;;6.10;99.90;;;;;;5036452;28;20203;-68
2021/04/08 02:16:32;;;;;;;3.17;2.85;;;6.20;99.90;;;;;;5037902;28;20203;-68
2021/04/08 02:19:00;;;;;;;4.25;3.17;;;6.20;99.90;;;;;;5052092;28;20198;-68
2021/04/08 02:21:27;;;;;;;3.05;2.78;;;6.20;99.90;;;;;;5042276;28;20204;-68
2021/04/08 02:23:55;;;;;;;11.70;3.08;;;6.20;99.90;;;;;;5037597;28;20194;-68
2021/04/08 02:26:23;;;;;;;3.17;2.80;;;6.20;99.90;;;;;;5052703;28;20192;-69
2021/04/08 02:28:50;;;;;;;3.80;2.45;;;6.10;99.90;;;;;;5033918;28;20882;-68
2021/04/08 02:31:17;;;;;;;4.97;3.05;;;6.10;99.90;;;;;;5046679;28;20261;-68
2021/04/08 02:33:44;;;;;;;3.13;2.83;;;6.10;99.90;;;;;;5033385;28;20292;-68
2021/04/08 02:36:10;;;;;;;4.15;2.78;;;6.10;99.90;;;;;;5034132;28;20207;-69
2021/04/08 02:38:37;;;;;;;5.35;2.72;;;6.10;99.90;;;;;;5033090;28;20211;-69
2021/04/08 02:41:06;;;;;;;4.03;3.15;;;6.10;99.90;;;;;;5036397;28;20194;-68
2021/04/08 02:43:33;;;;;;;3.15;2.70;;;6.10;99.90;;;;;;5042245;28;20215;-68
2021/04/08 02:45:59;;;;;;;3.90;3.50;;;6.10;99.90;;;;;;5040758;28;20191;-69
2021/04/08 02:48:26;;;;;;;6.10;3.05;;;6.00;99.90;;;;;;5039648;28;20698;-68
2021/04/08 02:50:54;;;;;;;3.85;2.33;;;6.10;99.90;;;;;;5034135;28;21050;-69
2021/04/08 02:53:27;;;;;;;4.03;3.25;;;6.10;99.90;;;;;;5032976;28;20203;-69
2021/04/08 02:55:57;;;;;;;5.18;2.30;;;6.00;99.90;;;;;;5041668;28;20194;-68
2021/04/08 02:58:28;;;;;;;3.20;2.90;;;6.10;99.90;;;;;;5049060;28;20195;-69
2021/04/08 03:00:57;;;;;;;3.25;2.28;;;6.10;99.90;;;;;;5037373;28;20261;-69
2021/04/08 03:03:30;;;;;;;3.80;2.67;;;6.10;99.90;;;;;;5033046;28;20204;-69
2021/04/08 03:06:00;;;;;;;6.53;3.10;;;6.10;99.90;;;;;;5052798;28;20191;-69
2021/04/08 03:08:28;;;;;;;3.80;3.10;;;6.10;99.90;;;;;;5038399;28;20769;-69
2021/04/08 03:10:59;;;;;;;5.95;2.40;;;6.00;99.90;;;;;;5045075;28;20195;-69
2021/04/08 03:13:28;;;;;;;4.85;3.40;;;6.00;99.90;;;;;;5047187;28;20207;-69
2021/04/08 03:15:55;;;;;;;4.20;2.75;;;6.00;99.90;;;;;;5040951;28;20211;-69
2021/04/08 03:18:22;;;;;;;6.65;2.80;;;6.00;99.90;;;;;;5047869;28;20199;-69
2021/04/08 03:20:51;;;;;;;6.32;2.80;;;6.00;99.90;;;;;;5051327;28;20234;-69
2021/04/08 03:23:19;;;;;;;3.67;3.20;;;6.00;99.90;;;;;;5038743;28;20238;-69
2021/04/08 03:25:49;;;;;;;4.28;2.70;;;6.00;99.90;;;;;;5051533;28;20548;-69
2021/04/08 03:28:16;;;;;;;2.80;2.60;;;6.00;99.90;;;;;;5043174;28;20208;-69
2021/04/08 03:30:44;;;;;;;3.65;2.70;;;6.00;99.90;;;;;;5036269;28;20206;-68
2021/04/08 03:33:12;;;;;;;4.80;3.47;;;6.00;99.90;;;;;;5036049;28;20256;-69
2021/04/08 03:35:41;;;;;;;3.70;3.25;;;6.00;99.90;;;;;;5033379;28;20226;-69
2021/04/08 03:38:08;;;;;;;5.05;3.08;;;6.00;99.90;;;;;;5049148;28;20229;-69
2021/04/08 03:40:34;;;;;;;4.25;2.97;;;6.00;99.90;;;;;;5041617;28;20210;-68
2021/04/08 03:43:00;;;;;;;6.40;3.20;;;6.00;99.90;;;;;;5041887;28;20195;-69
2021/04/08 03:45:27;;;;;;;4.95;2.85;;;6.00;99.90;;;;;;5046578;28;20213;-69
2021/04/08 03:47:59;;;;;;;6.68;2.53;;;6.00;99.90;;;;;;5043348;28;20207;-69
2021/04/08 03:50:27;;;;;;;6.13;2.83;;;6.00;99.90;;;;;;5037842;28;20343;-69
2021/04/08 03:52:54;;;;;;;6.38;3.10;;;6.00;99.90;;;;;;5045525;28;20221;-69
2021/04/08 03:55:21;;;;;;;6.05;3.00;;;5.90;99.90;;;;;;5042543;28;20198;-69
2021/04/08 03:57:48;;;;;;;4.55;2.75;;;6.00;99.90;;;;;;5042902;28;20203;-69
2021/04/08 04:00:15;;;;;;;3.00;2.70;;;5.90;99.90;;;;;;5048114;28;20645;-69
2021/04/08 04:02:44;;;;;;;4.78;3.70;;;5.90;99.90;;;;;;5039028;28;20195;-69
2021/04/08 04:05:12;;;;;;;5.40;2.50;;;5.90;99.90;;;;;;5039339;28;20204;-69
2021/04/08 04:07:40;;;;;;;3.90;3.00;;;5.90;99.90;;;;;;5040202;28;20254;-69
2021/04/08 04:10:08;;;;;;;5.80;3.35;;;5.90;99.90;;;;;;5031779;28;20203;-69
2021/04/08 04:12:35;;;;;;;3.65;3.13;;;5.90;99.90;;;;;;5032749;28;20223;-69
2021/04/08 04:15:05;;;;;;;5.22;3.20;;;5.90;99.90;;;;;;5031531;28;20195;-69
2021/04/08 04:17:33;;;;;;;4.38;2.90;;;5.90;99.90;;;;;;5032745;28;20210;-68
2021/04/08 04:20:00;;;;;;;4.75;2.58;;;6.00;99.90;;;;;;5036033;28;20230;-69
2021/04/08 04:22:28;;;;;;;5.28;3.15;;;6.00;99.90;;;;;;5033237;28;20202;-69
2021/04/08 04:24:55;;;;;;;4.13;3.20;;;5.90;99.90;;;;;;5031543;28;20249;-69
2021/04/08 04:27:21;;;;;;;5.90;3.78;;;5.90;99.90;;;;;;5033211;28;20587;-69
2021/04/08 04:29:47;;;;;;;5.53;4.00;;;5.90;99.90;;;;;;5039709;28;20554;-69
2021/04/08 04:32:14;;;;;;;3.65;3.00;;;5.80;99.90;;;;;;5033534;28;20231;-69
2021/04/08 04:34:41;;;;;;;6.53;3.92;;;5.80;99.90;;;;;;5052014;28;20198;-69
2021/04/08 04:37:07;;;;;;;5.35;3.53;;;5.80;99.90;;;;;;5036117;28;20211;-69
2021/04/08 04:39:35;;;;;;;4.97;3.00;;;5.90;99.90;;;;;;5038866;28;20696;-69
2021/04/08 04:42:02;;;;;;;7.43;3.25;;;5.90;99.90;;;;;;5039014;28;20196;-69
2021/04/08 04:44:28;;;;;;;4.85;3.60;;;5.80;99.90;;;;;;5031206;28;20239;-69
2021/04/08 04:46:55;;;;;;;6.13;3.55;;;5.90;99.90;;;;;;5038950;28;20207;-69
2021/04/08 04:49:22;;;;;;;3.50;3.03;;;5.90;99.90;;;;;;5039203;28;20196;-69
2021/04/08 04:51:48;;;;;;;4.97;3.35;;;5.80;99.90;;;;;;5046640;28;20220;-68
2021/04/08 04:54:14;;;;;;;6.80;3.40;;;5.80;99.90;;;;;;5031499;28;20203;-71
2021/04/08 04:56:41;;;;;;;5.13;3.90;;;5.80;99.90;;;;;;5035806;28;20552;-69
2021/04/08 04:59:07;;;;;;;7.18;3.75;;;5.80;99.90;;;;;;5049080;28;20217;-69
2021/04/08 05:01:33;;;;;;;4.50;3.50;;;5.80;99.90;;;;;;5039790;28;20250;-69
2021/04/08 05:04:00;;;;;;;13.90;4.82;;;5.80;99.90;;;;;;5035642;28;20195;-69
2021/04/08 05:06:26;;;;;;;5.25;3.03;;;5.80;99.90;;;;;;5028920;28;20915;-68
2021/04/08 05:08:52;;;;;;;5.70;3.70;;;5.80;99.90;;;;;;5043427;28;20207;-69
2021/04/08 05:11:18;;;;;;;8.23;3.10;;;5.80;99.90;;;;;;5037878;28;20712;-69
2021/04/08 05:13:45;;;;;;;3.83;3.13;;;5.70;99.90;;;;;;5030771;28;20218;-68
2021/04/08 05:16:12;;;;;;;5.68;3.05;;;5.80;99.90;;;;;;5034444;28;20208;-69
2021/04/08 05:18:38;;;;;;;6.22;3.20;;;5.80;99.90;;;;;;5035242;28;20196;-69
2021/04/08 05:21:05;;;;;;;10.20;3.22;;;5.80;99.90;;;;;;5043149;28;20226;-69
2021/04/08 05:23:31;;;;;;;7.10;3.95;;;5.80;99.90;;;;;;5040981;28;20253;-69
2021/04/08 05:25:57;;;;;;;5.00;3.78;;;5.80;99.90;;;;;;5034524;28;20551;-68
2021/04/08 05:28:23;;;;;;;4.90;3.10;;;5.80;99.90;;;;;;5035994;28;20203;-69
2021/04/08 05:30:50;;;;;;;4.07;3.30;;;5.70;99.90;;;;;;5046625;28;20642;-68
2021/04/08 05:33:17;;;;;;;5.07;2.95;;;5.80;99.90;;;;;;5036300;28;20547;-69
2021/04/08 05:35:43;;;;;;;4.88;3.45;;;5.80;99.90;;;;;;5035144;28;20202;-68
2021/04/08 05:38:10;;;;;;;4.25;3.20;;;5.80;99.90;;;;;;5037695;28;20595;-69
2021/04/08 05:40:36;;;;;;;4.57;3.80;;;5.80;99.90;;;;;;5038587;28;20257;-69
2021/04/08 05:43:02;;;;;;;4.47;2.63;;;5.80;99.90;;;;;;5034786;28;20199;-68
2021/04/08 05:45:31;;;;;;;5.50;3.10;;;5.80;99.90;;;;;;5041848;28;20738;-68
2021/04/08 05:47:58;;;;;;;4.03;3.28;;;5.80;99.90;;;;;;5042190;28;20207;-68
2021/04/08 05:50:25;;;;;;;4.47;2.80;;;5.70;99.90;;;;;;5043286;28;20211;-69
2021/04/08 05:52:51;;;;;;;5.50;3.47;;;5.70;99.90;;;;;;5045150;28;20210;-68
2021/04/08 05:55:18;;;;;;;5.97;3.33;;;5.70;99.90;;;;;;5040175;28;20195;-69
2021/04/08 05:57:44;;;;;;;9.32;3.00;;;5.70;99.90;;;;;;5037300;28;20210;-69
2021/04/08 06:00:12;;;;;;;2.35;2.08;;;5.70;99.90;;;;;;5036311;28;20621;-69
2021/04/08 06:02:38;;;;;;;3.83;2.60;;;5.70;99.90;;;;;;5040335;28;20198;-69
2021/04/08 06:05:08;;;;;;;4.40;2.90;;;5.70;99.90;;;;;;5042396;28;20198;-69
2021/04/08 06:07:34;;;;;;;5.68;3.40;;;5.80;99.90;;;;;;5036774;28;20214;-69
2021/04/08 06:10:00;;;;;;;7.03;3.50;;;5.80;99.90;;;;;;5039221;28;20202;-68
2021/04/08 06:12:27;;;;;;;4.45;2.50;;;5.70;99.90;;;;;;5037400;28;20219;-68
2021/04/08 06:14:53;;;;;;;4.07;2.20;;;5.70;99.90;;;;;;5052826;28;20198;-69
2021/04/08 06:17:19;;;;;;;4.07;2.55;;;5.80;99.90;;;;;;5041322;28;20200;-69
2021/04/08 06:19:46;;;;;;;5.35;2.40;;;5.80;99.90;;;;;;5036503;28;20238;-69
2021/04/08 06:22:14;;;;;;;4.03;2.67;;;5.80;99.90;;;;;;5042446;28;20210;-69
2021/04/08 06:24:40;;;;;;;5.93;2.30;;;5.70;99.90;;;;;;5037425;28;20191;-69
2021/04/08 06:27:07;;;;;;;4.13;3.05;;;5.70;99.90;;;;;;5039419;28;20214;-69
2021/04/08 06:29:34;;;;;;;5.80;3.03;;;5.70;99.90;;;;;;5047639;28;20202;-69
2021/04/08 06:32:01;;;;;;;5.95;2.47;;;5.70;99.90;;;;;;5046421;28;20222;-70
2021/04/08 06:34:28;;;;;;;5.93;2.35;;;5.70;99.90;;;;;;5036985;28;20670;-70
2021/04/08 06:36:54;;;;;;;5.22;2.65;;;5.70;99.90;;;;;;5046607;28;20628;-70
2021/04/08 06:39:21;;;;;;;5.05;2.50;;;5.80;99.90;;;;;;5037296;28;20587;-70
2021/04/08 06:41:50;;;;;;;2.90;2.53;;;5.80;99.90;;;;;;5040545;28;20201;-70
2021/04/08 06:44:18;;;;;;;3.20;2.55;;;5.80;99.90;;;;;;5056874;28;20214;-70
2021/04/08 06:46:46;;;;;;;6.28;2.85;;;5.80;99.90;;;;;;5044561;28;20682;-70
2021/04/08 06:49:27;;;;;;;2.47;2.13;;;5.80;99.90;;;;;;5033871;28;20624;-70
2021/04/08 06:51:57;;;;;;;5.90;2.83;;;5.90;99.90;;;;;;5037899;28;20210;-70
2021/04/08 06:54:24;;;;;;;4.13;3.13;;;5.90;99.90;;;;;;5038757;28;20627;-70
2021/04/08 06:56:51;;;;;;;5.82;3.22;;;5.80;99.90;;;;;;5033208;28;20827;-70
2021/04/08 06:59:17;;;;;;;6.32;3.15;;;5.90;99.90;;;;;;5033583;28;20648;-70
2021/04/08 07:01:44;;;;;;;5.95;3.38;;;6.00;99.90;;;;;;5041381;28;20199;-69
2021/04/08 07:04:11;;;;;;;7.45;2.38;;;6.00;99.90;;;;;;5032793;28;20230;-70
2021/04/08 07:06:38;;;;;;;3.65;3.00;;;6.00;99.90;;;;;;5040044;28;20195;-69
2021/04/08 07:09:07;;;;;;;3.53;2.22;;;6.00;99.90;;;;;;5044709;28;20203;-69
2021/04/08 07:11:35;;;;;;;3.90;2.67;;;6.00;99.90;;;;;;5037487;28;20216;-69
2021/04/08 07:14:01;;;;;;;5.00;2.55;;;6.00;99.90;;;;;;5040975;28;20195;-69
2021/04/08 07:16:29;;;;;;;4.28;2.05;;;6.00;99.90;;;;;;5044077;28;20226;-69
2021/04/08 07:18:56;;;;;;;5.28;2.65;;;6.00;99.90;;;;;;5033193;28;20203;-69
2021/04/08 07:21:22;;;;;;;6.35;2.45;;;6.10;99.90;;;;;;5037670;28;20195;-69
2021/04/08 07:24:13;;;;;;;3.15;2.03;;;6.10;99.90;;;;;;5038818;28;20306;-69
2021/04/08 07:27:01;;;;;;;3.05;1.98;;;6.20;99.90;;;;;;5028316;28;20203;-69
2021/04/08 07:29:52;;;;;;;4.78;2.60;;;6.20;99.90;;;;;;5032395;28;20628;-69
2021/04/08 07:32:23;;;;;;;3.83;2.10;;;6.30;99.90;;;;;;5032229;28;20638;-69
2021/04/08 07:34:51;;;;;;;2.95;2.05;;;6.40;99.90;;;;;;5042970;28;20246;-69
2021/04/08 07:37:23;;;;;;;8.25;2.53;;;6.50;99.90;;;;;;5049891;28;20203;-69
2021/04/08 07:39:49;;;;;;;3.45;2.30;;;6.60;99.90;;;;;;5050052;28;20210;-70
2021/04/08 07:42:17;;;;;;;3.92;2.40;;;6.60;99.90;;;;;;5031943;28;20246;-70
2021/04/08 07:44:49;;;;;;;6.03;2.78;;;6.70;99.90;;;;;;5044399;28;20202;-70
2021/04/08 07:47:20;;;;;;;2.50;1.85;;;6.70;99.90;;;;;;5033879;28;20207;-69
2021/04/08 07:49:47;;;;;;;3.17;2.60;;;6.80;99.90;;;;;;5033090;28;20195;-69
2021/04/08 07:52:22;;;;;;;4.85;2.70;;;6.90;99.90;;;;;;5038778;28;20296;-69
2021/04/08 07:55:00;;;;;;;2.58;1.92;;;6.90;99.90;;;;;;5041108;28;20202;-69
2021/04/08 07:57:27;;;;;;;7.78;2.78;;;6.90;99.90;;;;;;5033868;28;20210;-69
2021/04/08 07:59:54;;;;;;;2.40;2.17;;;6.90;99.90;;;;;;5033203;28;20203;-69
2021/04/08 08:02:24;;;;;;;4.60;2.58;;;6.90;99.90;;;;;;5031720;28;20200;-69
2021/04/08 08:04:51;;;;;;;4.28;2.05;;;6.90;99.90;;;;;;5044380;28;20219;-69
2021/04/08 08:07:27;;;;;;;3.53;2.15;;;6.90;99.90;;;;;;5035672;28;20206;-69
2021/04/08 08:09:54;;;;;;;6.85;2.40;;;6.90;99.90;;;;;;5032968;28;20199;-69
2021/04/08 08:12:21;;;;;;;3.95;1.60;;;6.90;99.90;;;;;;5035668;28;20605;-69
2021/04/08 08:14:49;;;;;;;5.70;2.35;;;7.00;99.90;;;;;;5052542;28;20195;-69
2021/04/08 08:17:16;;;;;;;5.22;4.43;;;6.90;99.90;;;;;;5040908;28;20269;-69
2021/04/08 08:19:43;;;;;;;6.07;2.83;;;7.00;99.90;;;;;;5044625;28;20238;-69
2021/04/08 08:22:17;;;;;;;7.35;2.50;;;7.00;99.90;;;;;;5032959;28;20211;-69
2021/04/08 08:24:52;;;;;;;3.83;2.17;;;7.00;99.90;;;;;;5033171;28;20200;-69
2021/04/08 08:27:18;;;;;;;5.43;3.20;;;7.00;99.90;;;;;;5031958;28;20194;-68
2021/04/08 08:29:56;;;;;;;3.95;2.28;;;7.00;99.90;;;;;;5042329;28;20199;-68
2021/04/08 08:32:24;;;;;;;9.27;2.28;;;7.00;99.90;;;;;;5032170;28;20238;-68
2021/04/08 08:34:50;;;;;;;3.95;2.42;;;6.90;99.90;;;;;;5049114;28;20217;-68
2021/04/08 08:37:17;;;;;;;3.33;2.40;;;6.90;99.90;;;;;;5043417;28;20203;-70
2021/04/08 08:39:45;;;;;;;2.83;2.38;;;6.70;99.90;;;;;;5041467;28;20282;-68
2021/04/08 08:42:13;;;;;;;6.28;2.58;;;6.70;99.90;;;;;;5043433;28;20278;-68
2021/04/08 08:44:41;;;;;;;4.78;1.90;;;6.60;99.90;;;;;;5035339;28;20191;-69
2021/04/08 08:47:11;;;;;;;4.28;2.22;;;6.60;99.90;;;;;;5038275;28;20273;-68
2021/04/08 08:49:42;;;;;;;5.72;2.60;;;6.60;99.90;;;;;;5050612;28;20209;-69
2021/04/08 08:52:10;;;;;;;4.90;2.38;;;6.70;99.90;;;;;;5043787;28;20590;-69
2021/04/08 08:54:36;;;;;;;5.30;2.60;;;6.70;99.90;;;;;;5032482;28;20261;-69
2021/04/08 08:57:05;;;;;;;3.28;2.97;;;6.80;99.90;;;;;;5043470;28;20199;-69
2021/04/08 08:59:31;;;;;;;3.55;2.28;;;6.80;99.90;;;;;;5036099;28;20206;-69
2021/04/08 09:01:58;;;;;;;6.53;2.50;;;6.90;99.90;;;;;;5039994;28;20202;-69
2021/04/08 09:04:24;;;;;;;2.10;1.75;;;6.90;99.90;;;;;;5043587;28;20215;-69
2021/04/08 09:06:53;;;;;;;4.75;2.53;;;6.90;99.90;;;;;;5034581;28;20237;-69
2021/04/08 09:09:22;;;;;;;4.28;2.40;;;7.00;99.90;;;;;;5039569;28;20199;-69
2021/04/08 09:11:48;;;;;;;6.55;2.60;;;7.10;99.90;;;;;;5036507;28;20226;-70
2021/04/08 09:14:15;;;;;;;3.25;2.10;;;7.10;99.90;;;;;;5035732;28;20233;-70
2021/04/08 09:16:45;;;;;;;5.78;2.90;;;7.10;99.90;;;;;;5043524;28;20199;-69
2021/04/08 09:19:13;;;;;;;4.57;2.70;;;7.20;99.90;;;;;;5035413;28;20229;-69
2021/04/08 09:21:47;;;;;;;3.80;2.65;;;7.30;99.90;;;;;;5040149;28;20598;-70
2021/04/08 09:24:17;;;;;;;3.60;2.83;;;7.30;99.90;;;;;;5030761;28;20635;-70
2021/04/08 09:26:48;;;;;;;3.67;1.92;;;7.50;99.90;;;;;;5033275;28;20210;-70
2021/04/08 09:29:42;;;;;;;4.85;2.88;;;7.50;99.90;;;;;;5032619;28;20199;-69
2021/04/08 09:32:32;;;;;;;10.07;4.45;;;7.60;99.90;;;;;;5030626;28;20291;-69
2021/04/08 09:35:09;;;;;;;4.53;2.38;;;7.60;99.90;;;;;;5031403;28;20702;-69
2021/04/08 09:38:24;;;;;;;4.05;2.80;;;7.70;99.90;;;;;;5030667;28;20821;-70
2021/04/08 09:40:58;;;;;;;4.78;3.05;;;7.70;99.90;;;;;;5031153;28;20218;-69
2021/04/08 09:43:26;;;;;;;3.92;2.20;;;7.80;99.90;;;;;;5029537;28;20199;-69
2021/04/08 09:45:59;;;;;;;7.28;2.50;;;8.00;99.90;;;;;;5037945;28;20194;-69
2021/04/08 09:48:27;;;;;;;4.75;2.65;;;8.00;99.90;;;;;;5031450;28;20342;-69
2021/04/08 09:50:54;;;;;;;4.88;2.20;;;8.00;99.90;;;;;;5028561;28;20660;-69
2021/04/08 09:53:22;;;;;;;6.47;2.80;;;7.90;99.90;;;;;;5031224;28;20223;-69
2021/04/08 09:55:54;;;;;;;3.28;2.28;;;7.90;99.90;;;;;;5031593;28;20199;-69
2021/04/08 09:58:23;;;;;;;2.75;2.40;;;7.90;99.90;;;;;;5033580;28;20206;-78
2021/04/08 10:00:51;;;;;;;3.55;2.40;;;7.90;99.90;;;;;;5035988;28;20276;-70
2021/04/08 10:03:28;;;;;;;4.93;2.30;;;7.80;99.90;;;;;;5044011;28;20226;-71
2021/04/08 10:05:54;;;;;;;2.75;2.20;;;7.80;99.90;;;;;;5038794;28;20261;-71
2021/04/08 10:08:22;;;;;;;3.92;2.25;;;7.70;99.90;;;;;;5042928;28;20199;-69
2021/04/08 10:10:50;;;;;;;3.72;1.98;;;7.70;99.90;;;;;;5032193;28;20258;-70
2021/04/08 10:13:18;;;;;;;4.95;2.40;;;7.60;99.90;;;;;;5049746;28;20230;-69
2021/04/08 10:15:47;;;;;;;2.50;2.22;;;7.50;99.90;;;;;;5035263;28;20195;-70
2021/04/08 10:18:15;;;;;;;3.13;2.22;;;7.50;99.90;;;;;;5039760;28;20203;-70
2021/04/08 10:20:43;;;;;;;4.82;2.28;;;7.60;99.90;;;;;;5032651;28;20758;-70
2021/04/08 10:23:09;;;;;;;3.65;1.90;;;7.60;99.90;;;;;;5032219;28;20905;-70
2021/04/08 10:25:36;;;;;;;4.53;2.75;;;7.60;99.90;;;;;;5033882;28;20210;-70
2021/04/08 10:28:03;;;;;;;5.53;2.35;;;7.60;99.90;;;;;;5040035;28;20211;-70
2021/04/08 10:30:34;;;;;;;2.40;1.73;;;7.50;99.90;;;;;;5036167;28;20203;-70
2021/04/08 10:33:13;;;;;;;7.07;2.00;;;7.50;99.90;;;;;;5040310;28;20218;-70
2021/04/08 10:35:39;;;;;;;3.90;2.78;;;7.50;99.90;;;;;;5038119;28;20202;-70
2021/04/08 10:38:07;;;;;;;3.60;2.10;;;7.60;99.90;;;;;;5037588;28;20207;-69
2021/04/08 10:40:35;;;;;;;4.72;1.95;;;7.50;99.90;;;;;;5034869;28;20217;-70
2021/04/08 10:43:09;;;;;;;4.68;2.20;;;7.70;99.90;;;;;;5035770;28;20191;-70
2021/04/08 10:45:36;;;;;;;4.25;2.15;;;7.80;99.90;;;;;;5034067;28;20354;-71
2021/04/08 10:48:06;;;;;;;3.97;2.08;;;7.90;99.90;;;;;;5042583;28;20206;-69
2021/04/08 10:50:33;;;;;;;6.15;3.00;;;7.90;99.90;;;;;;5049802;28;20539;-70
2021/04/08 10:53:00;;;;;;;3.42;2.30;;;8.00;99.90;;;;;;5053106;28;20280;-70
2021/04/08 10:55:27;;;;;;;2.42;1.90;;;8.00;99.90;;;;;;5050265;28;20203;-69
2021/04/08 10:57:54;;;;;;;3.50;2.40;;;8.10;99.90;;;;;;5048778;28;20649;-69
2021/04/08 11:00:21;;;;;;;3.90;2.20;;;8.00;99.90;;;;;;5048179;28;20203;-70
2021/04/08 11:02:48;;;;;;;3.88;2.05;;;8.00;99.90;;;;;;5032708;28;20639;-69
2021/04/08 11:05:19;;;;;;;3.97;1.75;;;8.00;99.90;;;;;;5034735;28;20327;-69
2021/04/08 11:07:48;;;;;;;2.78;1.70;;;8.00;99.90;;;;;;5048058;28;20195;-69
2021/04/08 11:10:17;;;;;;;2.80;2.03;;;8.00;99.90;;;;;;5052676;28;20226;-70
2021/04/08 11:12:46;;;;;;;2.60;1.98;;;8.00;99.90;;;;;;5049740;28;20221;-70
2021/04/08 11:15:14;;;;;;;3.58;2.25;;;8.10;99.90;;;;;;5038542;28;20269;-70
2021/04/08 11:17:43;;;;;;;3.83;2.05;;;8.10;99.90;;;;;;5032931;28;20192;-69
2021/04/08 11:20:11;;;;;;;2.42;1.88;;;8.20;99.90;;;;;;5033478;28;20545;-69
2021/04/08 11:22:43;;;;;;;2.00;1.65;;;8.20;99.90;;;;;;5052773;28;20195;-69
2021/04/08 11:25:12;;;;;;;3.15;1.80;;;8.20;99.90;;;;;;5036802;28;20203;-71
2021/04/08 11:27:43;;;;;;;3.47;1.55;;;8.20;99.90;;;;;;5034310;28;20195;-70
2021/04/08 11:30:11;;;;;;;2.08;1.70;;;8.30;99.90;;;;;;5033087;28;20751;-71
2021/04/08 11:32:49;;;;;;;1.80;1.50;;;8.30;99.90;;;;;;5037281;28;20689;-69
2021/04/08 11:35:33;;;;;;;2.30;1.83;;;8.30;99.90;;;;;;5031897;28;20203;-69
2021/04/08 11:38:13;;;;;;;3.17;2.17;;;8.30;99.90;;;;;;5033224;28;20195;-68
2021/04/08 11:40:41;;;;;;;3.25;2.20;;;8.30;99.90;;;;;;5033512;28;20199;-70
2021/04/08 11:43:26;;;;;;;3.08;1.65;;;8.30;99.90;;;;;;5033216;28;20199;-69
2021/04/08 11:45:53;;;;;;;3.90;2.10;;;8.30;99.90;;;;;;5034565;28;20199;-69
2021/04/08 11:48:22;;;;;;;3.38;2.03;;;8.30;99.90;;;;;;5034818;28;20203;-69
2021/04/08 11:50:48;;;;;;;2.63;1.75;;;8.30;99.90;;;;;;5033232;28;20203;-69
2021/04/08 11:53:18;;;;;;;3.97;1.85;;;8.40;99.90;;;;;;5034505;28;20220;-69
2021/04/08 11:55:46;;;;;;;1.48;1.35;;;8.40;99.90;;;;;;5032267;28;20192;-69
2021/04/08 11:58:26;;;;;;;2.15;1.90;;;8.40;99.90;;;;;;5032132;28;20192;-69
2021/04/08 12:00:53;;;;;;;2.50;1.70;;;8.50;99.90;;;;;;5045920;28;20197;-69
2021/04/08 12:03:21;;;;;;;6.03;2.00;;;8.50;99.90;;;;;;5039085;28;20258;-68
2021/04/08 12:05:48;;;;;;;3.35;2.10;;;8.50;99.90;;;;;;5031524;28;20191;-69
2021/04/08 12:08:15;;;;;;;2.85;2.53;;;8.50;99.90;;;;;;5041708;28;20248;-69
2021/04/08 12:10:41;;;;;;;3.92;2.85;;;8.50;99.90;;;;;;5051389;28;20209;-69
2021/04/08 12:13:09;;;;;;;3.38;2.75;;;8.50;99.90;;;;;;5040113;28;20211;-69
2021/04/08 12:15:42;;;;;;;4.10;2.38;;;8.50;99.90;;;;;;5036058;28;20186;-69
2021/04/08 12:18:20;;;;;;;4.50;2.55;;;8.50;99.90;;;;;;5042960;28;20195;-70
2021/04/08 12:20:48;;;;;;;3.13;2.28;;;8.50;99.90;;;;;;5034088;28;20911;-70
2021/04/08 12:23:17;;;;;;;3.00;2.75;;;8.60;99.90;;;;;;5031609;28;20661;-69
2021/04/08 12:25:46;;;;;;;7.95;3.25;;;8.60;99.90;;;;;;5038850;28;20200;-69
2021/04/08 12:28:13;;;;;;;4.45;2.90;;;8.60;99.90;;;;;;5040657;28;20219;-68
2021/04/08 12:33:31;;;;;;;3.65;2.72;;;8.60;99.90;;;;;;5028740;28;20215;-69
2021/04/08 12:35:58;;;;;;;3.30;2.42;;;8.70;99.90;;;;;;5049864;28;20658;-69
2021/04/08 12:38:25;;;;;;;2.90;2.70;;;8.70;99.90;;;;;;5042691;28;20215;-69
2021/04/08 12:40:53;;;;;;;4.40;2.70;;;8.70;99.80;;;;;;5031172;28;20560;-70
2021/04/08 12:43:19;;;;;;;2.72;2.40;;;8.70;99.90;;;;;;5034073;28;20191;-69
2021/04/08 12:45:46;;;;;;;3.75;3.03;;;8.70;99.90;;;;;;5043907;28;20195;-70
2021/04/08 12:48:12;;;;;;;4.10;2.80;;;8.70;99.90;;;;;;5029894;28;20210;-71
2021/04/08 12:50:40;;;;;;;3.17;2.90;;;8.70;99.90;;;;;;5028857;28;21220;-69
2021/04/08 12:53:07;;;;;;;3.67;2.63;;;8.80;99.70;;;;;;5036075;28;20238;-71
2021/04/08 12:55:35;;;;;;;3.33;2.63;;;8.80;99.30;;;;;;5031070;28;20210;-70
2021/04/08 12:58:01;;;;;;;3.97;2.88;;;8.80;99.40;;;;;;5031401;28;20196;-70
2021/04/08 13:00:27;;;;;;;3.78;2.47;;;8.80;99.40;;;;;;5028287;28;20241;-68
2021/04/08 13:02:55;;;;;;;4.03;3.03;;;8.80;99.00;;;;;;5042701;28;20202;-69
2021/04/08 13:05:21;;;;;;;3.58;2.75;;;8.90;98.90;;;;;;5045618;28;20651;-68
2021/04/08 13:07:48;;;;;;;2.60;2.40;;;8.90;98.60;;;;;;5046155;28;20222;-69